»·PEaware :: JBU640 KIFP-KLAX

JBU640 :: KIFP-KLAX

FLIGHT INFORMATION

Flight Status: Arrived
Operator:
JetBlue Airways
More flights by this operator :: More flights under this callsign
Pilot: Alex C. (14758)
Aircraft: AIRBUS A320
(A320)
More flights by this aircraft type
Origin: KIFP Laughlin/Bullhead Intl
United States
Destination: KLAX Los Angeles Intl
United States
More flights between these airports :: More routes between these airports
Route: DNERO ANJLL2
File this flight plan on PilotEdge
Remarks:
Altitude:
(Current/Filed)
24,000ft
Speed:
(Current/Filed)
450kts
Departed: 04-Nov-18 04:59 PM
Arrived: 04-Nov-18 06:06 PM
Distance/Time
Traveled:
204nm/1:07
Distance/Time
To Go:
Arrived

Flight Plot

Page will automatically refresh every two minutes.

Flight plan parsing failed; only flown route is shown


Map Options




Map Legend


Flown Route
Filed Route
Departure Airport
Arrival Airport
Navaid (VOR, NDB)
Fix

Horizontal Profiles

Position Reports

Time Latitude Longitude Heading Altitude Ground
Speed
04-Nov-18 16:48 35.164720 -114.556296 84 709ft 0kts
04-Nov-18 16:49 35.164720 -114.556296 84 709ft 0kts
04-Nov-18 16:50 35.164720 -114.556296 84 709ft 0kts
04-Nov-18 16:51 35.164441 -114.556812 359 709ft 0kts
04-Nov-18 16:52 35.164213 -114.556445 259 709ft 0kts
04-Nov-18 16:53 35.164213 -114.556445 259 709ft 0kts
04-Nov-18 16:54 35.164213 -114.556445 259 709ft 0kts
04-Nov-18 16:55 35.164213 -114.556445 259 709ft 0kts
04-Nov-18 16:56 35.164213 -114.556445 259 709ft 0kts
04-Nov-18 16:57 35.164212 -114.556449 259 709ft 0kts
04-Nov-18 16:58 35.164986 -114.557487 270 709ft 4kts
04-Nov-18 16:59 35.166160 -114.559071 281 709ft 0kts
04-Nov-18 17:00 35.166160 -114.559071 281 709ft 0kts
04-Nov-18 17:01 35.165892 -114.560164 186 709ft 9kts
04-Nov-18 17:02 35.156255 -114.559444 176 710ft 131kts
04-Nov-18 17:03 35.116956 -114.556959 173 1623ft 244kts
04-Nov-18 17:04 35.063934 -114.540662 165 4057ft 272kts
04-Nov-18 17:05 35.014732 -114.563327 249 6377ft 292kts
04-Nov-18 17:06 35.017242 -114.638553 270 7004ft 288kts
04-Nov-18 17:07 34.977124 -114.689526 177 7009ft 296kts
04-Nov-18 17:08 34.920801 -114.655482 133 6998ft 287kts
04-Nov-18 17:09 34.873620 -114.602346 134 8913ft 300kts
04-Nov-18 17:10 34.824435 -114.546689 134 10280ft 349kts
04-Nov-18 17:11 34.762340 -114.476146 143 11543ft 403kts
04-Nov-18 17:12 34.671883 -114.482194 229 14033ft 398kts
04-Nov-18 17:13 34.665908 -114.582817 309 16333ft 379kts
04-Nov-18 17:14 34.747961 -114.634031 336 18599ft 389kts
04-Nov-18 17:15 34.843461 -114.682016 336 20834ft 400kts
04-Nov-18 17:16 34.929360 -114.744604 313 22873ft 406kts
04-Nov-18 17:17 34.994479 -114.840401 308 23956ft 409kts
04-Nov-18 17:18 35.006765 -114.956641 254 23963ft 431kts
04-Nov-18 17:19 34.959806 -115.077932 247 23964ft 441kts
04-Nov-18 17:20 34.907404 -115.199289 246 23963ft 444kts
04-Nov-18 17:21 34.854611 -115.320278 245 23963ft 446kts
04-Nov-18 17:22 34.801073 -115.442523 245 23963ft 446kts
04-Nov-18 17:23 34.754561 -115.565452 249 24005ft 444kts
04-Nov-18 17:24 34.709342 -115.688390 249 24048ft 444kts
04-Nov-18 17:25 34.664397 -115.809946 249 24046ft 444kts
04-Nov-18 17:26 34.618929 -115.932805 249 24047ft 444kts
04-Nov-18 17:27 34.574039 -116.054483 249 24047ft 444kts
04-Nov-18 17:28 34.529501 -116.174768 249 24046ft 444kts
04-Nov-18 17:29 34.485493 -116.293185 249 24046ft 444kts
04-Nov-18 17:30 34.441082 -116.412251 249 24045ft 444kts
04-Nov-18 17:31 34.396937 -116.525339 247 24009ft 445kts
04-Nov-18 17:32 34.350988 -116.636901 247 23963ft 422kts
04-Nov-18 17:33 34.313077 -116.730270 247 23143ft 391kts
04-Nov-18 17:34 34.279299 -116.814027 247 21856ft 383kts
04-Nov-18 17:35 34.245964 -116.896803 247 20556ft 375kts
04-Nov-18 17:36 34.213283 -116.978248 250 19235ft 368kts
04-Nov-18 17:37 34.189302 -117.064268 255 17977ft 361kts
04-Nov-18 17:38 34.166559 -117.147939 255 17057ft 345kts
04-Nov-18 17:39 34.147970 -117.215711 255 16174ft 339kts
04-Nov-18 17:40 34.131078 -117.277069 255 15275ft 334kts
04-Nov-18 17:41 34.114933 -117.335603 255 14385ft 330kts
04-Nov-18 17:42 34.100598 -117.387625 255 14073ft 325kts
04-Nov-18 17:43 34.086031 -117.446665 257 13388ft 325kts
04-Nov-18 17:44 34.071305 -117.502609 251 12547ft 322kts
04-Nov-18 17:45 34.051036 -117.559758 250 11974ft 319kts
04-Nov-18 17:46 34.031225 -117.615009 251 11538ft 281kts
04-Nov-18 17:47 34.013668 -117.663983 250 10440ft 275kts
04-Nov-18 17:48 34.004245 -117.715452 265 9229ft 267kts
04-Nov-18 17:49 33.998790 -117.768532 265 8992ft 264kts
04-Nov-18 17:50 33.992838 -117.831615 265 8994ft 263kts
04-Nov-18 17:51 33.988055 -117.881467 265 8994ft 263kts
04-Nov-18 17:52 33.983784 -117.927679 265 8611ft 248kts
04-Nov-18 17:53 33.980061 -117.970270 265 8040ft 230kts
04-Nov-18 17:54 33.976665 -118.011194 262 7370ft 211kts
04-Nov-18 17:55 33.972317 -118.045970 262 6495ft 184kts
04-Nov-18 17:56 33.968676 -118.079238 262 5490ft 183kts
04-Nov-18 17:57 33.965447 -118.110153 261 4725ft 157kts
04-Nov-18 17:58 33.962742 -118.136538 261 4254ft 155kts
04-Nov-18 17:59 33.960000 -118.163330 261 3793ft 154kts
04-Nov-18 18:00 33.957396 -118.188730 261 3381ft 170kts
04-Nov-18 18:01 33.954727 -118.214880 261 2927ft 169kts
04-Nov-18 18:02 33.952013 -118.241377 261 2482ft 168kts
04-Nov-18 18:03 33.949354 -118.267289 261 2053ft 168kts
04-Nov-18 18:04 33.946617 -118.293904 261 1614ft 166kts
04-Nov-18 18:05 33.943778 -118.321425 261 1165ft 165kts
04-Nov-18 18:06 33.940864 -118.349703 261 700ft 139kts
04-Nov-18 18:07 33.938146 -118.375854 261 287ft 136kts
04-Nov-18 18:08 33.935416 -118.400673 264 133ft 84kts
04-Nov-18 18:09 33.935897 -118.406240 280 133ft 0kts
04-Nov-18 18:10 33.935911 -118.406336 280 133ft 5kts
04-Nov-18 18:11 33.936816 -118.408995 352 133ft 24kts
04-Nov-18 18:12 33.937786 -118.409116 353 133ft 0kts
04-Nov-18 18:13 33.937842 -118.409124 353 133ft 4kts
04-Nov-18 18:14 33.938716 -118.408671 78 133ft 16kts

Navigation Log

Ident Type
Flight plan parsing failed, navigation log unavailable